Latest Weather Observations for Albury

IDN60801

Issued at 10:32 am EDT Friday 27 March 2015 (issued every 30 minutes, with the page automatically refreshed every 10 minutes)

About weather observations | Map of weather stations | Latest weather observations for NSW | Other Formats
Station Details ID: 072160 Name: ALBURY AIRPORT AWS Lat: -36.07 Lon: 146.95 Height: 163.5 m
Data from the previous 72 hours. | See also: Recent months at Albury
Date/Time
EDT
Temp
°C
App
Temp
°C
Dew
Point
Rel
Hum
%
Delta-T
°C
Wind Press
QNH
hPa
Press
MSL
hPa
Rain
since 9 am
mm
Dir
 
Spd
km/h
Gust
km/h
Spd
kts
Gust
kts
27/10:30am 13.5 10.3 6.8 64 3.2 WNW 13 24 7 13 1023.9 1023.4 0.0
27/10:00am 13.5 9.6 7.3 66 3.0 W 17 24 9 13 1023.9 1023.4 0.0
27/09:30am 13.1 9.3 7.5 69 2.7 W 17 22 9 12 1023.8 1023.3 0.0
27/09:00am 12.2 8.0 7.3 72 2.4 WNW 19 24 10 13 1023.5 1023.0 0.0
27/08:34am 11.8 7.3 7.1 73 2.3 WNW 20 28 11 15 1023.5 1023.0 0.0
27/08:30am 11.5 7.2 7.0 74 2.2 WNW 19 26 10 14 1023.5 1023.0 0.0
27/08:20am 11.6 7.7 6.9 73 2.3 WNW 17 26 9 14 1023.5 1023.0 0.0
27/08:05am 11.2 7.3 7.1 76 2.0 WNW 17 24 9 13 1023.4 1022.9 0.0
27/08:00am 11.0 6.7 7.1 77 1.9 WNW 19 24 10 13 1023.3 1022.8 0.0
27/07:30am 10.8 6.8 6.6 75 2.0 NW 17 22 9 12 1022.8 1022.3 0.0
27/07:27am 10.8 6.7 6.4 74 2.1 NW 17 22 9 12 1022.7 1022.2 0.0
27/07:19am 10.9 6.9 6.5 74 2.1 NW 17 22 9 12 1022.6 1022.1 0.0
27/07:00am 11.0 7.0 6.6 74 2.1 NW 17 22 9 12 1022.5 1022.0 0.0
27/06:30am 10.9 8.3 6.1 72 2.3 NNW 9 13 5 7 1022.2 1021.7 0.0
27/06:00am 11.0 8.0 6.0 71 2.3 NW 11 17 6 9 1021.8 1021.4 0.0
27/05:49am 10.5 7.7 5.3 70 2.4 NW 9 13 5 7 1021.8 1021.4 0.0
27/05:30am 10.8 9.0 5.6 70 2.4 NW 4 13 2 7 1021.8 1021.4 0.0
27/05:00am 10.6 7.8 5.2 69 2.5 WSW 9 15 5 8 1021.7 1021.3 0.0
27/04:30am 11.0 7.5 5.3 68 2.6 W 13 20 7 11 1021.7 1021.3 0.0
27/04:00am 11.0 7.0 4.9 66 2.8 WNW 15 20 8 11 1021.7 1021.3 0.0
27/03:30am 11.5 7.1 4.7 63 3.1 W 17 22 9 12 1021.7 1021.3 0.0
27/03:00am 11.3 7.2 4.1 61 3.2 WNW 15 20 8 11 1021.6 1021.2 0.0
27/02:30am 12.0 7.5 4.0 58 3.6 W 17 24 9 13 1021.7 1021.3 0.0
27/02:00am 12.6 7.4 3.8 55 4.0 WNW 20 26 11 14 1021.8 1021.4 0.0
27/01:30am 13.0 7.4 3.7 53 4.2 WNW 22 30 12 16 1021.8 1021.4 0.0
27/01:00am 13.0 8.1 2.3 48 4.7 NW 17 24 9 13 1022.0 1021.6 0.0
27/12:30am 13.5 8.0 2.1 46 5.0 WNW 20 30 11 16 1021.8 1021.4 0.0
27/12:00am 13.9 9.0 1.9 44 5.3 WNW 17 24 9 13 1021.9 1021.5 0.0
 
Date/Time
EDT
Temp
°C
App
Temp
°C
Dew
Point
Rel
Hum
%
Delta-T
°C
Wind Press
QNH
hPa
Press
MSL
hPa
Rain
since 9 am
mm
Dir
 
Spd
km/h
Gust
km/h
Spd
kts
Gust
kts
26/11:30pm 13.8 8.8 1.1 42 5.5 NW 17 20 9 11 1022.0 1021.6 0.0
26/11:00pm 13.7 9.0 1.0 42 5.4 WNW 15 22 8 12 1022.3 1021.8 0.0
26/10:30pm 14.2 9.1 0.8 40 5.8 WNW 17 20 9 11 1021.9 1021.5 0.0
26/10:00pm 14.8 8.6 -0.1 36 6.3 WNW 22 30 12 16 1021.8 1021.4 0.0
26/09:30pm 14.6 9.7 -0.3 36 6.3 NW 15 20 8 11 1021.6 1021.2 0.0
26/09:00pm 14.5 10.0 -0.4 36 6.2 NNW 13 17 7 9 1021.4 1020.9 0.0
26/08:30pm 14.9 10.4 -0.4 35 6.4 NNW 13 17 7 9 1021.1 1020.6 0.0
26/08:00pm 15.7 11.2 -0.5 33 6.8 NW 13 19 7 10 1021.0 1020.5 0.0
26/07:30pm 16.0 10.3 -0.7 32 7.1 WNW 19 26 10 14 1020.8 1020.3 0.0
26/07:00pm 16.3 10.5 -0.4 32 7.1 WNW 20 26 11 14 1020.5 1020.0 0.0
26/06:30pm 16.6 10.4 -0.6 31 7.3 W 22 30 12 16 1020.3 1019.8 0.0
26/06:00pm 18.0 10.6 -0.8 28 8.1 WNW 28 39 15 21 1019.9 1019.4 0.0
26/05:30pm 17.2 9.4 -0.5 30 7.6 W 30 39 16 21 1019.7 1019.2 0.0
26/05:00pm 18.1 11.8 -0.7 28 8.1 WNW 22 33 12 18 1019.5 1019.0 0.0
26/04:30pm 17.5 10.5 -0.2 30 7.7 WNW 26 46 14 25 1019.4 1018.9 0.0
26/04:00pm 18.9 12.4 0.5 29 8.2 W 24 35 13 19 1019.4 1018.9 0.0
26/03:30pm 18.1 11.5 -0.2 29 8.0 WNW 24 37 13 20 1019.6 1019.1 0.0
26/03:00pm 18.4 12.2 1.9 33 7.5 W 24 37 13 20 1019.7 1019.2 0.0
26/02:30pm 17.5 11.1 1.1 33 7.3 W 24 37 13 20 1019.9 1019.4 0.0
26/02:00pm 18.8 13.0 2.2 33 7.6 W 22 33 12 18 1020.0 1019.5 0.0
26/01:30pm 18.2 12.2 1.3 32 7.6 W 22 32 12 17 1020.0 1019.5 0.0
26/01:00pm 15.6 9.7 1.7 39 6.2 WNW 22 30 12 16 1020.3 1019.8 0.0
26/12:30pm 16.8 10.9 2.0 37 6.7 W 22 32 12 17 1020.6 1020.1 0.0
26/12:00pm 16.8 10.7 2.8 39 6.4 W 24 33 13 18 1020.6 1020.1 0.0
26/11:30am 16.1 10.8 3.2 42 5.9 W 20 32 11 17 1020.6 1020.1 0.0
26/11:00am 15.2 9.1 3.0 44 5.5 WNW 24 33 13 18 1020.7 1020.2 0.0
26/10:30am 14.3 8.9 4.3 51 4.6 WNW 22 30 12 16 1020.5 1020.0 0.0
26/10:00am 13.5 8.2 4.9 56 4.0 WNW 22 32 12 17 1020.2 1019.7 0.0
26/09:30am 13.2 9.0 5.6 60 3.6 WNW 17 24 9 13 1020.0 1019.5 0.0
26/09:00am 12.9 9.3 4.8 58 3.7 NW 13 20 7 11 1019.7 1019.2 0.0
26/08:30am 12.4 9.4 4.1 57 3.8 WNW 9 17 5 9 1019.2 1018.7 0.0
26/08:00am 11.4 8.1 4.8 64 3.0 W 11 15 6 8 1018.9 1018.4 0.0
26/07:30am 9.3 7.4 4.7 73 2.1 ESE 4 9 2 5 1018.4 1017.9 0.0
26/07:00am 9.2 6.1 3.4 67 2.5 E 9 11 5 6 1018.1 1017.6 0.0
26/06:30am 8.4 6.5 2.8 68 2.4 SSW 2 7 1 4 1018.3 1017.8 0.0
26/06:00am 8.4 5.7 2.8 68 2.4 ENE 6 7 3 4 1017.8 1017.3 0.0
26/05:30am 8.3 6.7 2.5 67 2.5 CALM 0 0 0 0 1017.5 1017.0 0.0
26/05:00am 8.5 7.0 2.9 68 2.4 CALM 0 0 0 0 1017.2 1016.7 0.0
26/04:30am 9.0 6.0 2.1 62 2.9 NNE 7 9 4 5 1017.0 1016.5 0.0
26/04:00am 10.2 8.5 2.1 57 3.5 CALM 0 0 0 0 1017.1 1016.6 0.0
26/03:30am 11.5 9.1 2.0 52 4.1 NE 4 7 2 4 1017.0 1016.5 0.0
26/03:00am 11.9 9.1 2.1 51 4.2 NNE 6 11 3 6 1017.2 1016.7 0.0
26/02:30am 13.8 10.4 2.1 45 5.2 N 9 11 5 6 1017.5 1017.0 0.0
26/02:00am 13.3 10.2 1.6 45 5.1 N 7 11 4 6 1017.6 1017.1 0.0
26/01:30am 14.2 10.0 1.5 42 5.5 WNW 13 19 7 10 1017.5 1017.0 0.0
26/01:00am 14.9 10.0 2.1 42 5.7 W 17 24 9 13 1017.2 1016.7 0.0
26/12:30am 15.3 9.9 2.5 42 5.8 W 20 28 11 15 1017.1 1016.6 0.0
26/12:00am 16.1 11.0 3.9 44 5.7 WNW 20 32 11 17 1017.0 1016.5 0.0
 
Date/Time
EDT
Temp
°C
App
Temp
°C
Dew
Point
Rel
Hum
%
Delta-T
°C
Wind Press
QNH
hPa
Press
MSL
hPa
Rain
since 9 am
mm
Dir
 
Spd
km/h
Gust
km/h
Spd
kts
Gust
kts
25/11:30pm 16.6 13.0 4.9 46 5.6 NNW 13 19 7 10 1016.7 1016.2 0.0
25/11:00pm 16.9 12.8 4.6 44 5.9 NNW 15 20 8 11 1016.6 1016.1 0.0
25/10:30pm 16.4 13.5 4.4 45 5.7 NNW 9 13 5 7 1016.5 1016.0 0.0
25/10:00pm 17.1 13.8 4.4 43 6.0 NNW 11 15 6 8 1016.4 1015.9 0.0
25/09:30pm 17.5 14.5 4.1 41 6.4 NW 9 11 5 6 1016.3 1015.7 0.0
25/09:00pm 18.4 14.6 3.8 38 6.9 NNW 13 19 7 10 1015.9 1015.3 0.0
25/08:30pm 18.9 14.6 3.5 36 7.3 NW 15 20 8 11 1015.5 1015.0 0.0
25/08:00pm 19.5 15.2 3.2 34 7.7 NW 15 22 8 12 1015.3 1014.8 0.0
25/07:30pm 20.2 15.4 2.5 31 8.3 NNW 17 24 9 13 1014.8 1014.3 0.0
25/07:00pm 21.4 16.7 3.1 30 8.8 NNW 17 24 9 13 1014.4 1013.9 0.0
25/06:30pm 22.5 18.3 3.6 29 9.2 N 15 20 8 11 1014.1 1013.6 0.0
25/06:00pm 22.6 17.5 3.2 28 9.4 N 19 26 10 14 1014.1 1013.6 0.0
25/05:30pm 23.3 18.1 3.8 28 9.6 N 20 33 11 18 1014.2 1013.7 0.0
25/05:00pm 23.3 18.8 4.3 29 9.4 N 17 30 9 16 1013.9 1013.4 0.0
25/04:30pm 23.4 20.0 5.8 32 9.0 N 13 24 7 13 1014.1 1013.6 0.0
25/04:00pm 23.8 19.3 6.1 32 9.1 N 19 24 10 13 1014.3 1013.8 0.0
25/03:30pm 22.6 18.9 6.4 35 8.3 N 15 26 8 14 1014.6 1014.1 0.0
25/03:00pm 24.0 22.2 7.2 34 8.8 NNE 6 20 3 11 1015.0 1014.5 0.0
25/02:30pm 22.6 20.2 6.8 36 8.2 NNE 9 17 5 9 1015.6 1015.1 0.0
25/02:00pm 21.6 18.5 7.1 39 7.5 NE 13 19 7 10 1016.2 1015.6 0.0
25/01:30pm 21.4 18.9 6.5 38 7.6 ESE 9 17 5 9 1016.6 1016.1 0.0
25/01:00pm 20.7 17.4 6.3 39 7.3 NNE 13 24 7 13 1017.2 1016.7 0.0
25/12:30pm 20.1 16.7 6.1 40 7.0 NNE 13 22 7 12 1017.6 1017.1 0.0
25/12:00pm 20.8 17.9 6.4 39 7.3 NE 11 28 6 15 1017.6 1017.1 0.0
25/11:30am 19.7 17.0 7.4 45 6.3 NW 11 20 6 11 1018.5 1018.0 0.0
25/11:00am 18.7 14.8 7.2 47 5.8 NNW 17 24 9 13 1018.8 1018.3 0.0
25/10:30am 18.1 15.9 7.8 51 5.3 NE 9 15 5 8 1018.6 1018.1 0.0
25/10:00am 17.1 16.4 8.5 57 4.4 NNE 2 7 1 4 1018.3 1017.8 0.0
25/09:30am 14.9 13.7 7.9 63 3.5 SE 4 7 2 4 1018.0 1017.5 0.0
25/09:00am 13.1 11.5 7.8 70 2.6 ENE 6 9 3 5 1017.8 1017.3 0.0
25/08:30am 11.0 10.6 8.4 84 1.3 CALM 0 0 0 0 1017.7 1017.2 0.0
25/08:00am 9.3 7.8 6.7 84 1.2 ENE 4 7 2 4 1017.3 1016.8 0.0
25/07:30am 9.1 8.5 7.2 88 0.9 CALM 0 7 0 4 1016.9 1016.4 0.0
25/07:00am 8.5 7.3 6.5 87 0.9 NNE 2 6 1 3 1016.6 1016.1 0.0
25/06:30am 8.6 7.6 5.7 82 1.3 CALM 0 0 0 0 1016.3 1015.7 0.0
25/06:00am 9.0 7.1 6.6 85 1.1 NW 6 7 3 4 1016.2 1015.6 0.0
25/05:30am 9.0 8.2 6.4 84 1.2 CALM 0 0 0 0 1015.8 1015.2 0.0
25/05:00am 9.4 7.7 5.9 79 1.6 NE 4 6 2 3 1015.5 1015.0 0.0
25/04:30am 10.4 9.7 7.1 80 1.6 CALM 0 0 0 0 1015.2 1014.7 0.0
25/04:00am 9.9 9.1 6.6 80 1.6 CALM 0 0 0 0 1015.4 1014.9 0.0
25/03:30am 10.1 9.3 6.6 79 1.7 CALM 0 0 0 0 1015.5 1015.0 0.0
25/03:00am 10.0 8.0 6.3 78 1.7 N 6 7 3 4 1015.6 1015.1 0.0
25/02:30am 11.2 10.5 6.9 75 2.1 CALM 0 0 0 0 1015.9 1015.3 0.0
25/02:00am 11.8 10.8 7.5 75 2.1 WNW 2 7 1 4 1016.1 1015.5 0.0
25/01:30am 11.1 9.2 6.6 74 2.1 N 6 9 3 5 1016.1 1015.5 0.0
25/01:00am 11.6 9.2 7.1 74 2.2 N 9 11 5 6 1015.9 1015.3 0.0
25/12:30am 12.4 11.0 7.3 71 2.5 N 4 7 2 4 1015.6 1015.1 0.0
25/12:00am 12.4 10.9 6.7 68 2.7 N 4 6 2 3 1015.5 1015.0 0.0
 
Date/Time
EDT
Temp
°C
App
Temp
°C
Dew
Point
Rel
Hum
%
Delta-T
°C
Wind Press
QNH
hPa
Press
MSL
hPa
Rain
since 9 am
mm
Dir
 
Spd
km/h
Gust
km/h
Spd
kts
Gust
kts
24/11:30pm 13.3 12.6 6.9 65 3.1 CALM 0 0 0 0 1015.8 1015.2 0.0
24/11:00pm 13.3 12.1 6.6 64 3.2 E 2 6 1 3 1015.8 1015.2 0.0
24/10:30pm 14.6 12.8 7.2 61 3.7 E 6 7 3 4 1015.8 1015.2 0.0
24/10:00pm 15.4 12.7 7.2 58 4.1 W 11 17 6 9 1015.0 1014.5 0.0
24/09:30pm 15.8 13.0 7.0 56 4.4 WNW 11 19 6 10 1014.7 1014.2 0.0
24/09:00pm 16.6 13.0 6.7 52 4.9 WNW 15 20 8 11 1014.2 1013.7 0.0
24/08:30pm 17.2 13.5 6.4 49 5.4 WNW 15 20 8 11 1013.9 1013.4 0.0
24/08:00pm 17.9 13.8 6.4 47 5.7 WNW 17 22 9 12 1013.5 1013.0 0.0
24/07:30pm 18.3 13.6 6.2 45 6.0 WNW 20 32 11 17 1013.2 1012.7 0.0
24/07:00pm 19.3 14.6 6.1 42 6.6 W 20 30 11 16 1012.8 1012.3 0.0
24/06:30pm 20.3 14.4 5.9 39 7.2 WNW 26 35 14 19 1012.2 1011.7 0.0
24/06:00pm 21.6 16.9 5.9 36 7.9 W 20 32 11 17 1011.7 1011.2 0.0
24/05:30pm 22.1 16.6 5.9 35 8.2 W 24 35 13 19 1011.3 1010.8 0.0
24/05:00pm 22.9 16.6 5.8 33 8.7 W 28 35 15 19 1011.3 1010.8 0.0
24/04:30pm 23.6 19.0 5.5 31 9.2 WNW 19 30 10 16 1011.1 1010.6 0.0
24/04:00pm 23.6 19.2 6.4 33 8.9 WNW 19 30 10 16 1011.2 1010.7 0.0
24/03:30pm 23.8 18.5 6.6 33 8.9 WNW 24 33 13 18 1011.2 1010.7 0.0
24/03:00pm 24.0 18.7 6.7 33 9.0 WNW 24 37 13 20 1011.3 1010.8 0.0
24/02:30pm 23.5 18.7 7.2 35 8.5 WNW 22 35 12 19 1011.5 1011.0 0.0
24/02:00pm 23.7 19.5 7.3 35 8.6 WNW 19 28 10 15 1011.7 1011.2 0.0
24/01:30pm 22.6 18.7 8.7 41 7.4 WNW 19 30 10 16 1012.0 1011.5 0.0
24/01:00pm 21.9 18.3 9.8 46 6.6 WNW 19 32 10 17 1012.4 1011.9 0.0
24/12:30pm 21.8 18.3 10.3 48 6.3 WNW 19 30 10 16 1012.6 1012.1 0.0
24/12:00pm 20.7 18.2 11.1 54 5.3 WNW 15 20 8 11 1012.8 1012.3 0.0
24/11:30am 19.8 18.0 11.0 57 4.8 WNW 11 17 6 9 1013.0 1012.5 0.0
24/11:00am 18.8 16.5 11.6 63 4.0 WNW 15 20 8 11 1013.1 1012.6 0.0

Other Formats:

Comma delimited format used in spreadsheet applications
http://www.bom.gov.au/fwo/IDN60801/IDN60801.95896.axf

JavaScript Object Notation format (JSON) in row-major order
http://www.bom.gov.au/fwo/IDN60801/IDN60801.95896.json